createdAt,value
2022-10-11T00:05:29.916Z,2.99
2022-10-11T00:11:31.824Z,3.78
2022-10-11T00:17:34.277Z,3.90
2022-10-11T00:23:36.496Z,2.94
2022-10-11T00:29:38.604Z,3.34
2022-10-11T00:35:41.846Z,3.61
2022-10-11T00:41:43.603Z,3.05
2022-10-11T00:47:45.323Z,3.42
2022-10-11T00:53:50.963Z,3.21
2022-10-11T00:59:55.185Z,1.78
2022-10-11T01:05:57.066Z,3.26
2022-10-11T01:12:00.677Z,2.83
2022-10-11T01:18:14.733Z,3.38
2022-10-11T01:24:22.481Z,2.06
2022-10-11T01:30:27.703Z,2.99
2022-10-11T01:36:40.551Z,2.75
2022-10-11T01:42:43.924Z,3.02
2022-10-11T01:48:55.752Z,2.85
2022-10-11T01:55:21.702Z,2.96
2022-10-11T02:01:29.995Z,3.10
2022-10-11T02:07:52.150Z,2.35
2022-10-11T02:14:00.600Z,2.55
2022-10-11T02:20:09.673Z,2.71
2022-10-11T02:26:14.755Z,2.34
2022-10-11T02:32:17.829Z,2.47
2022-10-11T02:38:24.989Z,2.34
2022-10-11T02:44:35.474Z,2.24
2022-10-11T02:50:39.811Z,1.60
2022-10-11T02:56:41.841Z,2.39
2022-10-11T03:02:43.772Z,2.58
2022-10-11T03:08:45.687Z,1.94
2022-10-11T03:14:47.523Z,2.04
2022-10-11T03:20:49.330Z,1.47
2022-10-11T03:26:51.394Z,2.19
2022-10-11T03:32:53.266Z,0.69
2022-10-11T03:38:55.070Z,1.90
2022-10-11T03:44:57.411Z,1.88
2022-10-11T03:50:59.266Z,1.74
2022-10-11T03:57:01.070Z,2.14
2022-10-11T04:03:06.134Z,1.96
2022-10-11T04:09:07.947Z,0.86
2022-10-11T04:15:13.550Z,1.68
2022-10-11T04:21:15.598Z,0.83
2022-10-11T04:27:17.643Z,1.38
2022-10-11T04:33:19.487Z,1.26
2022-10-11T04:39:21.368Z,-0.02
2022-10-11T04:45:23.293Z,0.72
2022-10-11T04:51:25.491Z,1.21
2022-10-11T04:57:27.498Z,2.00
2022-10-11T05:03:29.710Z,1.87
2022-10-11T05:09:31.579Z,1.29
2022-10-11T05:15:34.110Z,2.16
2022-10-11T05:21:36.088Z,2.36
2022-10-11T05:27:38.160Z,2.26
2022-10-11T05:33:46.450Z,2.43
2022-10-11T05:46:07.488Z,2.88
2022-10-11T05:52:10.808Z,2.49
2022-10-11T05:58:18.813Z,3.27
2022-10-11T06:04:20.686Z,3.69
2022-10-11T06:10:22.526Z,4.29
2022-10-11T06:16:25.195Z,4.49
2022-10-11T06:22:27.608Z,3.79
2022-10-11T06:28:29.875Z,4.48
2022-10-11T06:34:31.655Z,5.10
2022-10-11T06:40:33.405Z,5.30
2022-10-11T06:46:35.136Z,5.32
2022-10-11T06:52:37.022Z,5.42
2022-10-11T06:58:40.025Z,5.97
2022-10-11T07:04:41.823Z,5.84
2022-10-11T07:10:43.756Z,7.01
2022-10-11T07:16:45.587Z,7.41
2022-10-11T07:22:47.474Z,7.80
2022-10-11T07:28:49.402Z,7.89
2022-10-11T07:34:51.172Z,7.95
2022-10-11T07:40:52.918Z,8.59
2022-10-11T07:46:54.634Z,8.67
2022-10-11T07:52:56.466Z,8.65
2022-10-11T07:59:01.730Z,9.42
2022-10-11T08:05:03.963Z,9.82
2022-10-11T08:11:06.516Z,9.47
2022-10-11T08:17:09.424Z,10.55
2022-10-11T08:23:11.534Z,11.09
2022-10-11T08:29:14.559Z,11.29
2022-10-11T08:35:17.223Z,10.68
2022-10-11T08:41:55.623Z,11.63
2022-10-11T08:48:30.634Z,11.65
2022-10-11T08:54:48.472Z,13.05
2022-10-11T09:01:00.220Z,12.79
2022-10-11T09:07:20.252Z,13.01
2022-10-11T09:27:18.672Z,14.25
2022-10-11T16:24:06.954Z,14.71
2022-10-11T16:30:12.259Z,15.45
2022-10-11T16:36:41.726Z,14.97
2022-10-11T16:42:45.993Z,14.99
2022-10-11T16:48:50.232Z,14.84
2022-10-11T16:54:52.120Z,14.74
2022-10-11T17:00:54.224Z,14.49
2022-10-11T17:06:56.723Z,14.18
2022-10-11T17:12:58.582Z,14.02
2022-10-11T17:19:00.900Z,13.65
2022-10-11T17:25:03.908Z,14.00
2022-10-11T17:31:06.297Z,13.18
2022-10-11T17:37:10.220Z,13.50
2022-10-11T17:43:12.110Z,13.26
2022-10-11T17:49:14.639Z,13.35
2022-10-11T17:55:16.853Z,13.04
2022-10-11T18:01:21.207Z,13.21
2022-10-11T18:07:24.389Z,12.28
2022-10-11T18:13:26.294Z,12.28
2022-10-11T18:19:28.337Z,11.53
2022-10-11T18:25:33.696Z,12.16
2022-10-11T18:31:36.063Z,12.40
2022-10-11T18:37:38.085Z,12.11
2022-10-11T18:43:40.021Z,12.45
2022-10-11T18:49:41.954Z,12.46
2022-10-11T18:55:43.764Z,11.95
2022-10-11T19:01:46.382Z,12.04
2022-10-11T19:07:48.408Z,11.42
2022-10-11T19:13:58.473Z,12.03
2022-10-11T19:20:00.328Z,11.53
2022-10-11T19:26:02.723Z,11.45
2022-10-11T19:32:04.963Z,11.83
2022-10-11T19:38:06.805Z,10.91
2022-10-11T19:44:08.988Z,11.48
2022-10-11T19:50:10.931Z,11.24
2022-10-11T19:56:15.758Z,11.14
2022-10-11T20:02:17.527Z,11.28
2022-10-11T20:08:19.411Z,11.35
2022-10-11T20:14:21.389Z,9.75
2022-10-11T20:20:23.191Z,10.39
2022-10-11T20:26:26.674Z,11.35
2022-10-11T20:32:28.760Z,10.43
2022-10-11T20:38:32.164Z,11.24
2022-10-11T20:44:33.993Z,11.21
2022-10-11T20:50:35.934Z,9.11
2022-10-11T20:56:38.807Z,9.38
2022-10-11T21:02:40.563Z,10.64
2022-10-11T21:08:42.524Z,10.95
2022-10-11T21:14:44.658Z,10.74
2022-10-11T21:20:46.729Z,10.64
2022-10-11T21:26:48.508Z,10.42
2022-10-11T21:32:51.081Z,9.45
2022-10-11T21:38:53.430Z,9.94
2022-10-11T21:44:55.250Z,10.37
2022-10-11T21:50:57.044Z,10.05
2022-10-11T21:56:58.872Z,9.94
2022-10-11T22:03:00.649Z,10.42
2022-10-11T22:09:03.918Z,10.05
2022-10-11T22:15:06.476Z,9.99
2022-10-11T22:21:13.705Z,9.80
2022-10-11T22:27:15.686Z,9.02
2022-10-11T22:33:17.513Z,9.49
2022-10-11T22:39:19.358Z,9.08
2022-10-11T22:45:21.226Z,9.23
2022-10-11T22:51:23.342Z,8.45
2022-10-11T22:57:25.333Z,8.42
2022-10-11T23:03:27.221Z,8.78
2022-10-11T23:09:29.194Z,9.21
2022-10-11T23:15:31.037Z,9.33
2022-10-11T23:21:32.859Z,8.49
2022-10-11T23:27:34.846Z,9.34
2022-10-11T23:33:37.140Z,8.82
2022-10-11T23:39:38.997Z,8.92
2022-10-11T23:45:40.778Z,8.55
2022-10-11T23:51:42.610Z,8.13
2022-10-11T23:57:44.447Z,8.87
